sensor_id;sensor_type;location;lat;lon;timestamp;pressure;altitude;pressure_sealevel;temperature
13219;BMP180;6674;49.152;11.918;2023-07-16T00:01:23;95668.91;;;23.26
13219;BMP180;6674;49.152;11.918;2023-07-16T00:03:49;95695.88;;;23.32
13219;BMP180;6674;49.152;11.918;2023-07-16T00:06:16;95741.78;;;23.47
13219;BMP180;6674;49.152;11.918;2023-07-16T00:08:43;95771.53;;;23.26
13219;BMP180;6674;49.152;11.918;2023-07-16T00:11:11;95775.06;;;23.43
13219;BMP180;6674;49.152;11.918;2023-07-16T00:13:37;95754.09;;;22.95
13219;BMP180;6674;49.152;11.918;2023-07-16T00:16:04;95721.88;;;23.11
13219;BMP180;6674;49.152;11.918;2023-07-16T00:18:31;95784.78;;;22.99
13219;BMP180;6674;49.152;11.918;2023-07-16T00:20:57;95790.75;;;22.92
13219;BMP180;6674;49.152;11.918;2023-07-16T00:23:24;95774.75;;;22.88
13219;BMP180;6674;49.152;11.918;2023-07-16T00:25:50;95768.94;;;22.64
13219;BMP180;6674;49.152;11.918;2023-07-16T00:28:18;95781.25;;;22.42
13219;BMP180;6674;49.152;11.918;2023-07-16T00:30:45;95789.97;;;22.51
13219;BMP180;6674;49.152;11.918;2023-07-16T00:33:11;95785.09;;;22.58
13219;BMP180;6674;49.152;11.918;2023-07-16T00:35:38;95764.88;;;22.45
13219;BMP180;6674;49.152;11.918;2023-07-16T00:38:05;95677.13;;;22.19
13219;BMP180;6674;49.152;11.918;2023-07-16T00:40:31;95653.75;;;21.91
13219;BMP180;6674;49.152;11.918;2023-07-16T00:42:58;95697.13;;;22.15
13219;BMP180;6674;49.152;11.918;2023-07-16T00:45:26;95707.16;;;22.40
13219;BMP180;6674;49.152;11.918;2023-07-16T00:47:53;95731.28;;;22.55
13219;BMP180;6674;49.152;11.918;2023-07-16T00:50:20;95735.06;;;22.63
13219;BMP180;6674;49.152;11.918;2023-07-16T00:52:47;95733.69;;;22.65
13219;BMP180;6674;49.152;11.918;2023-07-16T00:55:14;95747.97;;;22.73
13219;BMP180;6674;49.152;11.918;2023-07-16T00:57:40;95736.41;;;22.74
13219;BMP180;6674;49.152;11.918;2023-07-16T01:00:08;95724.94;;;22.70
13219;BMP180;6674;49.152;11.918;2023-07-16T01:02:37;95739.72;;;22.66
13219;BMP180;6674;49.152;11.918;2023-07-16T01:05:04;95757.28;;;22.57
13219;BMP180;6674;49.152;11.918;2023-07-16T01:07:30;95740.81;;;22.52
13219;BMP180;6674;49.152;11.918;2023-07-16T01:09:57;95745.66;;;22.58
13219;BMP180;6674;49.152;11.918;2023-07-16T01:12:25;95823.38;;;22.51
13219;BMP180;6674;49.152;11.918;2023-07-16T01:14:54;95818.81;;;22.29
13219;BMP180;6674;49.152;11.918;2023-07-16T01:17:22;95818.28;;;22.27
13219;BMP180;6674;49.152;11.918;2023-07-16T01:19:50;95838.13;;;21.88
13219;BMP180;6674;49.152;11.918;2023-07-16T01:22:28;95856.06;;;22.00
13219;BMP180;6674;49.152;11.918;2023-07-16T01:25:20;95896.56;;;21.99
13219;BMP180;6674;49.152;11.918;2023-07-16T01:28:11;95945.81;;;22.07
13219;BMP180;6674;49.152;11.918;2023-07-16T01:30:44;95963.25;;;21.98
13219;BMP180;6674;49.152;11.918;2023-07-16T01:33:12;95975.78;;;21.87
13219;BMP180;6674;49.152;11.918;2023-07-16T01:35:40;95985.47;;;21.87
13219;BMP180;6674;49.152;11.918;2023-07-16T01:38:09;95982.28;;;21.90
13219;BMP180;6674;49.152;11.918;2023-07-16T01:40:36;95981.53;;;21.89
13219;BMP180;6674;49.152;11.918;2023-07-16T01:43:02;95994.88;;;21.93
13219;BMP180;6674;49.152;11.918;2023-07-16T01:45:29;95989.13;;;21.91
13219;BMP180;6674;49.152;11.918;2023-07-16T01:48:05;95978.41;;;21.87
13219;BMP180;6674;49.152;11.918;2023-07-16T01:50:33;95971.56;;;21.86
13219;BMP180;6674;49.152;11.918;2023-07-16T01:53:00;95964.13;;;21.75
13219;BMP180;6674;49.152;11.918;2023-07-16T01:55:27;95978.06;;;21.34
13219;BMP180;6674;49.152;11.918;2023-07-16T01:57:53;95972.28;;;21.55
13219;BMP180;6674;49.152;11.918;2023-07-16T02:00:20;95973.72;;;21.66
13219;BMP180;6674;49.152;11.918;2023-07-16T02:02:47;95973.47;;;21.21
13219;BMP180;6674;49.152;11.918;2023-07-16T02:05:15;95973.50;;;21.39
13219;BMP180;6674;49.152;11.918;2023-07-16T02:07:42;95983.41;;;21.47
13219;BMP180;6674;49.152;11.918;2023-07-16T02:10:09;95985.63;;;21.35
13219;BMP180;6674;49.152;11.918;2023-07-16T02:12:35;95986.03;;;21.47
13219;BMP180;6674;49.152;11.918;2023-07-16T02:15:02;95989.09;;;21.54
13219;BMP180;6674;49.152;11.918;2023-07-16T02:17:29;95974.97;;;21.68
13219;BMP180;6674;49.152;11.918;2023-07-16T02:19:55;95970.94;;;21.76
13219;BMP180;6674;49.152;11.918;2023-07-16T02:22:23;95980.53;;;21.85
13219;BMP180;6674;49.152;11.918;2023-07-16T02:24:50;95993.88;;;21.89
13219;BMP180;6674;49.152;11.918;2023-07-16T02:27:16;95995.88;;;21.97
13219;BMP180;6674;49.152;11.918;2023-07-16T02:29:43;95986.63;;;21.99
13219;BMP180;6674;49.152;11.918;2023-07-16T02:32:10;95983.16;;;22.04
13219;BMP180;6674;49.152;11.918;2023-07-16T02:34:36;95968.25;;;21.81
13219;BMP180;6674;49.152;11.918;2023-07-16T02:37:03;95953.19;;;21.86
13219;BMP180;6674;49.152;11.918;2023-07-16T02:39:32;95951.78;;;21.94
13219;BMP180;6674;49.152;11.918;2023-07-16T02:41:59;95950.41;;;21.96
13219;BMP180;6674;49.152;11.918;2023-07-16T02:44:25;95967.47;;;21.99
13219;BMP180;6674;49.152;11.918;2023-07-16T02:46:52;95975.78;;;21.87
13219;BMP180;6674;49.152;11.918;2023-07-16T02:49:18;95977.03;;;21.53
13219;BMP180;6674;49.152;11.918;2023-07-16T02:51:45;95976.59;;;21.46
13219;BMP180;6674;49.152;11.918;2023-07-16T02:54:12;95985.47;;;21.50
13219;BMP180;6674;49.152;11.918;2023-07-16T02:56:39;95975.69;;;21.32
13219;BMP180;6674;49.152;11.918;2023-07-16T02:59:06;95974.66;;;20.87
13219;BMP180;6674;49.152;11.918;2023-07-16T03:01:33;95988.53;;;20.87
13219;BMP180;6674;49.152;11.918;2023-07-16T03:03:59;95999.91;;;20.78
13219;BMP180;6674;49.152;11.918;2023-07-16T03:06:26;96008.38;;;20.98
13219;BMP180;6674;49.152;11.918;2023-07-16T03:08:52;96001.88;;;20.91
13219;BMP180;6674;49.152;11.918;2023-07-16T03:11:19;96012.78;;;21.03
13219;BMP180;6674;49.152;11.918;2023-07-16T03:13:47;96026.81;;;20.88
13219;BMP180;6674;49.152;11.918;2023-07-16T03:16:13;96036.66;;;21.01
13219;BMP180;6674;49.152;11.918;2023-07-16T03:18:40;96041.06;;;21.06
13219;BMP180;6674;49.152;11.918;2023-07-16T03:21:06;96040.28;;;21.05
13219;BMP180;6674;49.152;11.918;2023-07-16T03:23:33;96018.91;;;21.17
13219;BMP180;6674;49.152;11.918;2023-07-16T03:26:00;96008.84;;;21.23
13219;BMP180;6674;49.152;11.918;2023-07-16T03:28:26;96004.84;;;21.08
13219;BMP180;6674;49.152;11.918;2023-07-16T03:30:54;96007.88;;;21.20
13219;BMP180;6674;49.152;11.918;2023-07-16T03:33:21;96005.69;;;21.26
13219;BMP180;6674;49.152;11.918;2023-07-16T03:35:48;95990.94;;;21.30
13219;BMP180;6674;49.152;11.918;2023-07-16T03:38:15;96001.38;;;21.35
13219;BMP180;6674;49.152;11.918;2023-07-16T03:40:46;95989.25;;;21.39
13219;BMP180;6674;49.152;11.918;2023-07-16T03:43:13;95977.41;;;21.47
13219;BMP180;6674;49.152;11.918;2023-07-16T03:45:40;95966.06;;;21.51
13219;BMP180;6674;49.152;11.918;2023-07-16T03:48:08;95969.38;;;21.57
13219;BMP180;6674;49.152;11.918;2023-07-16T03:50:35;95970.66;;;21.59
13219;BMP180;6674;49.152;11.918;2023-07-16T03:53:02;95965.91;;;21.61
13219;BMP180;6674;49.152;11.918;2023-07-16T03:55:29;95957.81;;;21.58
13219;BMP180;6674;49.152;11.918;2023-07-16T03:57:56;95964.06;;;21.62
13219;BMP180;6674;49.152;11.918;2023-07-16T04:00:22;95957.44;;;21.64
13219;BMP180;6674;49.152;11.918;2023-07-16T04:02:49;95966.34;;;21.68
13219;BMP180;6674;49.152;11.918;2023-07-16T04:05:17;95969.16;;;21.71
13219;BMP180;6674;49.152;11.918;2023-07-16T04:07:43;95981.53;;;21.71
13219;BMP180;6674;49.152;11.918;2023-07-16T04:10:10;95970.75;;;21.72
13219;BMP180;6674;49.152;11.918;2023-07-16T04:12:36;95976.28;;;21.71
13219;BMP180;6674;49.152;11.918;2023-07-16T04:15:07;96002.44;;;21.58
13219;BMP180;6674;49.152;11.918;2023-07-16T04:17:34;96008.75;;;21.57
13219;BMP180;6674;49.152;11.918;2023-07-16T04:20:00;96009.03;;;21.55
13219;BMP180;6674;49.152;11.918;2023-07-16T04:22:29;96008.25;;;21.55
13219;BMP180;6674;49.152;11.918;2023-07-16T04:24:56;96013.78;;;21.53
13219;BMP180;6674;49.152;11.918;2023-07-16T04:27:23;96025.19;;;21.44
13219;BMP180;6674;49.152;11.918;2023-07-16T04:29:49;96033.88;;;21.39
13219;BMP180;6674;49.152;11.918;2023-07-16T04:32:16;96040.28;;;21.28
13219;BMP180;6674;49.152;11.918;2023-07-16T04:34:42;96047.25;;;21.15
13219;BMP180;6674;49.152;11.918;2023-07-16T04:37:09;96057.88;;;21.05
13219;BMP180;6674;49.152;11.918;2023-07-16T04:39:37;96062.63;;;21.03
13219;BMP180;6674;49.152;11.918;2023-07-16T04:42:04;96059.41;;;21.06
13219;BMP180;6674;49.152;11.918;2023-07-16T04:44:30;96055.06;;;20.96
13219;BMP180;6674;49.152;11.918;2023-07-16T04:46:57;96061.03;;;21.02
13219;BMP180;6674;49.152;11.918;2023-07-16T04:49:24;96072.13;;;20.94
13219;BMP180;6674;49.152;11.918;2023-07-16T04:51:50;96079.81;;;20.85
13219;BMP180;6674;49.152;11.918;2023-07-16T04:54:17;96090.97;;;20.68
13219;BMP180;6674;49.152;11.918;2023-07-16T04:56:45;96094.38;;;20.63
13219;BMP180;6674;49.152;11.918;2023-07-16T04:59:11;96100.47;;;20.59
13219;BMP180;6674;49.152;11.918;2023-07-16T05:01:38;96104.91;;;20.58
13219;BMP180;6674;49.152;11.918;2023-07-16T05:04:04;96107.59;;;20.48
13219;BMP180;6674;49.152;11.918;2023-07-16T05:06:33;96114.16;;;20.51
13219;BMP180;6674;49.152;11.918;2023-07-16T05:08:59;96116.88;;;20.31
13219;BMP180;6674;49.152;11.918;2023-07-16T05:11:26;96102.22;;;20.30
13219;BMP180;6674;49.152;11.918;2023-07-16T05:13:54;96108.59;;;20.14
13219;BMP180;6674;49.152;11.918;2023-07-16T05:16:21;96097.31;;;20.19
13219;BMP180;6674;49.152;11.918;2023-07-16T05:18:47;96099.44;;;20.17
13219;BMP180;6674;49.152;11.918;2023-07-16T05:21:14;96098.47;;;20.03
13219;BMP180;6674;49.152;11.918;2023-07-16T05:23:41;96106.81;;;20.05
13219;BMP180;6674;49.152;11.918;2023-07-16T05:26:07;96103.13;;;20.11
13219;BMP180;6674;49.152;11.918;2023-07-16T05:28:34;96119.72;;;19.91
13219;BMP180;6674;49.152;11.918;2023-07-16T05:31:03;96140.94;;;19.90
13219;BMP180;6674;49.152;11.918;2023-07-16T05:33:30;96140.19;;;19.85
13219;BMP180;6674;49.152;11.918;2023-07-16T05:35:56;96148.53;;;19.82
13219;BMP180;6674;49.152;11.918;2023-07-16T05:38:23;96138.38;;;19.70
13219;BMP180;6674;49.152;11.918;2023-07-16T05:40:49;96146.25;;;19.65
13219;BMP180;6674;49.152;11.918;2023-07-16T05:43:16;96134.16;;;19.74
13219;BMP180;6674;49.152;11.918;2023-07-16T05:45:42;96142.59;;;19.66
13219;BMP180;6674;49.152;11.918;2023-07-16T05:48:10;96140.75;;;19.62
13219;BMP180;6674;49.152;11.918;2023-07-16T05:50:37;96142.84;;;19.65
13219;BMP180;6674;49.152;11.918;2023-07-16T05:53:03;96146.75;;;19.62
13219;BMP180;6674;49.152;11.918;2023-07-16T05:55:30;96145.47;;;19.65
13219;BMP180;6674;49.152;11.918;2023-07-16T05:57:57;96147.81;;;19.56
13219;BMP180;6674;49.152;11.918;2023-07-16T06:00:23;96150.16;;;19.58
13219;BMP180;6674;49.152;11.918;2023-07-16T06:02:50;96164.84;;;19.54
13219;BMP180;6674;49.152;11.918;2023-07-16T06:05:18;96167.44;;;19.59
13219;BMP180;6674;49.152;11.918;2023-07-16T06:07:44;96162.22;;;19.59
13219;BMP180;6674;49.152;11.918;2023-07-16T06:10:11;96162.44;;;19.67
13219;BMP180;6674;49.152;11.918;2023-07-16T06:12:37;96170.31;;;19.67
13219;BMP180;6674;49.152;11.918;2023-07-16T06:15:04;96175.78;;;19.71
13219;BMP180;6674;49.152;11.918;2023-07-16T06:17:31;96173.69;;;19.78
13219;BMP180;6674;49.152;11.918;2023-07-16T06:19:58;96173.41;;;19.79
13219;BMP180;6674;49.152;11.918;2023-07-16T06:22:25;96200.13;;;19.86
13219;BMP180;6674;49.152;11.918;2023-07-16T06:24:52;96190.75;;;19.60
13219;BMP180;6674;49.152;11.918;2023-07-16T06:27:19;96205.91;;;19.63
13219;BMP180;6674;49.152;11.918;2023-07-16T06:29:45;96210.63;;;19.66
13219;BMP180;6674;49.152;11.918;2023-07-16T06:32:12;96213.25;;;19.61
13219;BMP180;6674;49.152;11.918;2023-07-16T06:34:38;96219.50;;;19.65
13219;BMP180;6674;49.152;11.918;2023-07-16T06:37:05;96218.50;;;19.61
13219;BMP180;6674;49.152;11.918;2023-07-16T06:39:33;96223.16;;;19.64
13219;BMP180;6674;49.152;11.918;2023-07-16T06:42:00;96219.00;;;19.63
13219;BMP180;6674;49.152;11.918;2023-07-16T06:44:27;96221.63;;;19.63
13219;BMP180;6674;49.152;11.918;2023-07-16T06:46:53;96222.41;;;19.59
13219;BMP180;6674;49.152;11.918;2023-07-16T06:49:21;96223.72;;;19.61
13219;BMP180;6674;49.152;11.918;2023-07-16T06:51:48;96227.88;;;19.62
13219;BMP180;6674;49.152;11.918;2023-07-16T06:54:14;96236.25;;;19.69
13219;BMP180;6674;49.152;11.918;2023-07-16T06:56:42;96235.72;;;19.67
13219;BMP180;6674;49.152;11.918;2023-07-16T06:59:09;96240.97;;;19.62
13219;BMP180;6674;49.152;11.918;2023-07-16T07:01:36;96237.56;;;19.67
13219;BMP180;6674;49.152;11.918;2023-07-16T07:04:02;96236.50;;;19.68
13219;BMP180;6674;49.152;11.918;2023-07-16T07:06:29;96232.06;;;19.68
13219;BMP180;6674;49.152;11.918;2023-07-16T07:08:55;96231.81;;;19.75
13219;BMP180;6674;49.152;11.918;2023-07-16T07:11:22;96226.56;;;19.75
13219;BMP180;6674;49.152;11.918;2023-07-16T07:13:51;96231.78;;;19.80
13219;BMP180;6674;49.152;11.918;2023-07-16T07:16:18;96230.97;;;19.79
13219;BMP180;6674;49.152;11.918;2023-07-16T07:18:45;96230.22;;;19.79
13219;BMP180;6674;49.152;11.918;2023-07-16T07:21:12;96236.75;;;19.81
13219;BMP180;6674;49.152;11.918;2023-07-16T07:23:38;96229.94;;;19.90
13219;BMP180;6674;49.152;11.918;2023-07-16T07:26:05;96232.56;;;19.90
13219;BMP180;6674;49.152;11.918;2023-07-16T07:28:32;96222.31;;;19.98
13219;BMP180;6674;49.152;11.918;2023-07-16T07:31:01;96227.81;;;19.97
13219;BMP180;6674;49.152;11.918;2023-07-16T07:33:27;96224.41;;;20.01
13219;BMP180;6674;49.152;11.918;2023-07-16T07:35:54;96234.63;;;20.03
13219;BMP180;6674;49.152;11.918;2023-07-16T07:38:21;96247.97;;;20.06
13219;BMP180;6674;49.152;11.918;2023-07-16T07:40:47;96248.22;;;20.10
13219;BMP180;6674;49.152;11.918;2023-07-16T07:43:14;96250.31;;;20.08
13219;BMP180;6674;49.152;11.918;2023-07-16T07:45:40;96250.56;;;20.11
13219;BMP180;6674;49.152;11.918;2023-07-16T07:48:08;96253.97;;;20.17
13219;BMP180;6674;49.152;11.918;2023-07-16T07:50:35;96246.38;;;20.15
13219;BMP180;6674;49.152;11.918;2023-07-16T07:53:02;96235.63;;;20.22
13219;BMP180;6674;49.152;11.918;2023-07-16T07:55:28;96235.88;;;20.25
13219;BMP180;6674;49.152;11.918;2023-07-16T07:57:55;96242.50;;;19.93
13219;BMP180;6674;49.152;11.918;2023-07-16T08:00:22;96242.47;;;20.03
13219;BMP180;6674;49.152;11.918;2023-07-16T08:02:48;96240.34;;;20.15
13219;BMP180;6674;49.152;11.918;2023-07-16T08:05:16;96238.47;;;20.25
13219;BMP180;6674;49.152;11.918;2023-07-16T08:07:43;96245.53;;;20.30
13219;BMP180;6674;49.152;11.918;2023-07-16T08:10:10;96240.28;;;20.34
13219;BMP180;6674;49.152;11.918;2023-07-16T08:12:37;96247.34;;;20.34
13219;BMP180;6674;49.152;11.918;2023-07-16T08:15:04;96253.41;;;20.30
13219;BMP180;6674;49.152;11.918;2023-07-16T08:17:32;96253.09;;;20.31
13219;BMP180;6674;49.152;11.918;2023-07-16T08:19:59;96258.59;;;20.39
13219;BMP180;6674;49.152;11.918;2023-07-16T08:22:27;96258.31;;;20.46
13219;BMP180;6674;49.152;11.918;2023-07-16T08:24:54;96255.41;;;20.47
13219;BMP180;6674;49.152;11.918;2023-07-16T08:27:21;96242.84;;;20.44
13219;BMP180;6674;49.152;11.918;2023-07-16T08:29:47;96251.97;;;20.52
13219;BMP180;6674;49.152;11.918;2023-07-16T08:32:14;96244.63;;;20.59
13219;BMP180;6674;49.152;11.918;2023-07-16T08:34:41;96249.03;;;20.63
13219;BMP180;6674;49.152;11.918;2023-07-16T08:37:07;96246.94;;;20.70
13219;BMP180;6674;49.152;11.918;2023-07-16T08:39:35;96243.75;;;20.73
13219;BMP180;6674;49.152;11.918;2023-07-16T08:42:02;96248.47;;;20.76
13219;BMP180;6674;49.152;11.918;2023-07-16T08:44:29;96253.94;;;20.79
13219;BMP180;6674;49.152;11.918;2023-07-16T08:46:56;96254.25;;;20.73
13219;BMP180;6674;49.152;11.918;2023-07-16T08:49:23;96249.28;;;20.67
13219;BMP180;6674;49.152;11.918;2023-07-16T08:51:51;96246.13;;;20.65
13219;BMP180;6674;49.152;11.918;2023-07-16T08:54:20;96235.91;;;20.68
13219;BMP180;6674;49.152;11.918;2023-07-16T08:56:48;96229.59;;;20.74
13219;BMP180;6674;49.152;11.918;2023-07-16T08:59:18;96228.00;;;20.78
13219;BMP180;6674;49.152;11.918;2023-07-16T09:01:46;96221.22;;;20.72
13219;BMP180;6674;49.152;11.918;2023-07-16T09:04:13;96234.09;;;20.69
13219;BMP180;6674;49.152;11.918;2023-07-16T09:06:40;96239.84;;;20.71
13219;BMP180;6674;49.152;11.918;2023-07-16T09:09:06;96252.47;;;20.59
13219;BMP180;6674;49.152;11.918;2023-07-16T09:11:33;96254.41;;;20.33
13219;BMP180;6674;49.152;11.918;2023-07-16T09:14:02;96252.63;;;20.24
13219;BMP180;6674;49.152;11.918;2023-07-16T09:16:32;96250.66;;;20.54
13219;BMP180;6674;49.152;11.918;2023-07-16T09:19:05;96249.56;;;20.70
13219;BMP180;6674;49.152;11.918;2023-07-16T09:21:32;96249.25;;;20.81
13219;BMP180;6674;49.152;11.918;2023-07-16T09:24:00;96250.53;;;20.79
13219;BMP180;6674;49.152;11.918;2023-07-16T09:26:26;96253.16;;;20.79
13219;BMP180;6674;49.152;11.918;2023-07-16T09:28:53;96253.09;;;20.41
13219;BMP180;6674;49.152;11.918;2023-07-16T09:31:21;96273.78;;;20.33
13219;BMP180;6674;49.152;11.918;2023-07-16T09:33:47;96254.31;;;20.53
13219;BMP180;6674;49.152;11.918;2023-07-16T09:36:23;96255.31;;;20.72
13219;BMP180;6674;49.152;11.918;2023-07-16T09:38:49;96258.34;;;20.89
13219;BMP180;6674;49.152;11.918;2023-07-16T09:41:17;96257.28;;;20.95
13219;BMP180;6674;49.152;11.918;2023-07-16T09:43:43;96257.25;;;21.00
13219;BMP180;6674;49.152;11.918;2023-07-16T09:46:10;96252.91;;;20.80
13219;BMP180;6674;49.152;11.918;2023-07-16T09:48:38;96268.34;;;20.87
13219;BMP180;6674;49.152;11.918;2023-07-16T09:51:07;96262.22;;;21.01
13219;BMP180;6674;49.152;11.918;2023-07-16T09:53:39;96256.66;;;21.08
13219;BMP180;6674;49.152;11.918;2023-07-16T09:56:08;96259.22;;;21.18
13219;BMP180;6674;49.152;11.918;2023-07-16T09:58:36;96252.25;;;21.31
13219;BMP180;6674;49.152;11.918;2023-07-16T10:01:03;96253.53;;;21.39
13219;BMP180;6674;49.152;11.918;2023-07-16T10:03:31;96256.88;;;21.49
13219;BMP180;6674;49.152;11.918;2023-07-16T10:06:06;96257.50;;;21.31
13219;BMP180;6674;49.152;11.918;2023-07-16T10:08:34;96252.75;;;21.38
13219;BMP180;6674;49.152;11.918;2023-07-16T10:11:01;96244.94;;;21.28
13219;BMP180;6674;49.152;11.918;2023-07-16T10:13:28;96252.16;;;21.46
13219;BMP180;6674;49.152;11.918;2023-07-16T10:15:56;96246.44;;;21.39
13219;BMP180;6674;49.152;11.918;2023-07-16T10:18:25;96240.91;;;21.41
13219;BMP180;6674;49.152;11.918;2023-07-16T10:20:52;96246.09;;;21.51
13219;BMP180;6674;49.152;11.918;2023-07-16T10:23:20;96244.69;;;21.63
13219;BMP180;6674;49.152;11.918;2023-07-16T10:26:00;96256.81;;;21.54
13219;BMP180;6674;49.152;11.918;2023-07-16T10:28:31;96245.91;;;21.70
13219;BMP180;6674;49.152;11.918;2023-07-16T10:30:57;96239.22;;;21.60
13219;BMP180;6674;49.152;11.918;2023-07-16T10:33:24;96229.81;;;21.54
13219;BMP180;6674;49.152;11.918;2023-07-16T10:35:50;96235.69;;;21.69
13219;BMP180;6674;49.152;11.918;2023-07-16T10:38:18;96235.50;;;21.61
13219;BMP180;6674;49.152;11.918;2023-07-16T10:40:46;96233.72;;;21.56
13219;BMP180;6674;49.152;11.918;2023-07-16T10:43:12;96225.91;;;21.51
13219;BMP180;6674;49.152;11.918;2023-07-16T10:45:39;96221.78;;;21.68
13219;BMP180;6674;49.152;11.918;2023-07-16T10:48:06;96225.59;;;21.53
13219;BMP180;6674;49.152;11.918;2023-07-16T10:50:33;96221.66;;;21.55
13219;BMP180;6674;49.152;11.918;2023-07-16T10:53:00;96222.81;;;21.39
13219;BMP180;6674;49.152;11.918;2023-07-16T10:55:27;96210.44;;;21.12
13219;BMP180;6674;49.152;11.918;2023-07-16T10:57:56;96212.94;;;21.26
13219;BMP180;6674;49.152;11.918;2023-07-16T11:00:23;96212.78;;;21.51
13219;BMP180;6674;49.152;11.918;2023-07-16T11:02:50;96213.63;;;21.70
13219;BMP180;6674;49.152;11.918;2023-07-16T11:05:17;96225.06;;;21.84
13219;BMP180;6674;49.152;11.918;2023-07-16T11:07:45;96228.94;;;21.86
13219;BMP180;6674;49.152;11.918;2023-07-16T11:10:11;96224.28;;;21.55
13219;BMP180;6674;49.152;11.918;2023-07-16T11:12:38;96223.69;;;21.63
13219;BMP180;6674;49.152;11.918;2023-07-16T11:15:07;96229.78;;;21.82
13219;BMP180;6674;49.152;11.918;2023-07-16T11:17:37;96236.50;;;21.93
13219;BMP180;6674;49.152;11.918;2023-07-16T11:20:08;96238.69;;;21.86
13219;BMP180;6674;49.152;11.918;2023-07-16T11:22:37;96228.13;;;21.91
13219;BMP180;6674;49.152;11.918;2023-07-16T11:25:04;96223.81;;;22.00
13219;BMP180;6674;49.152;11.918;2023-07-16T11:27:40;96230.97;;;22.17
13219;BMP180;6674;49.152;11.918;2023-07-16T11:30:09;96228.28;;;22.22
13219;BMP180;6674;49.152;11.918;2023-07-16T11:32:37;96225.53;;;22.32
13219;BMP180;6674;49.152;11.918;2023-07-16T11:35:05;96223.59;;;22.43
13219;BMP180;6674;49.152;11.918;2023-07-16T11:37:34;96224.94;;;22.40
13219;BMP180;6674;49.152;11.918;2023-07-16T11:40:03;96224.28;;;22.30
13219;BMP180;6674;49.152;11.918;2023-07-16T11:42:31;96225.25;;;22.34
13219;BMP180;6674;49.152;11.918;2023-07-16T11:44:59;96221.09;;;22.51
13219;BMP180;6674;49.152;11.918;2023-07-16T11:47:28;96223.53;;;22.48
13219;BMP180;6674;49.152;11.918;2023-07-16T11:49:54;96218.06;;;22.44
13219;BMP180;6674;49.152;11.918;2023-07-16T11:52:23;96212.94;;;22.52
13219;BMP180;6674;49.152;11.918;2023-07-16T11:54:51;96215.06;;;22.87
13219;BMP180;6674;49.152;11.918;2023-07-16T11:57:17;96213.50;;;23.23
13219;BMP180;6674;49.152;11.918;2023-07-16T11:59:44;96194.53;;;23.39
13219;BMP180;6674;49.152;11.918;2023-07-16T12:02:11;96199.59;;;23.67
13219;BMP180;6674;49.152;11.918;2023-07-16T12:04:39;96199.72;;;23.89
13219;BMP180;6674;49.152;11.918;2023-07-16T12:07:06;96208.59;;;23.80
13219;BMP180;6674;49.152;11.918;2023-07-16T12:09:33;96212.22;;;23.52
13219;BMP180;6674;49.152;11.918;2023-07-16T12:12:00;96203.66;;;23.60
13219;BMP180;6674;49.152;11.918;2023-07-16T12:14:28;96193.53;;;23.67
13219;BMP180;6674;49.152;11.918;2023-07-16T12:16:55;96195.09;;;23.68
13219;BMP180;6674;49.152;11.918;2023-07-16T12:19:22;96199.03;;;23.84
13219;BMP180;6674;49.152;11.918;2023-07-16T12:21:50;96190.47;;;23.91
13219;BMP180;6674;49.152;11.918;2023-07-16T12:24:16;96188.41;;;23.88
13219;BMP180;6674;49.152;11.918;2023-07-16T12:26:43;96197.28;;;23.79
13219;BMP180;6674;49.152;11.918;2023-07-16T12:29:10;96189.16;;;23.89
13219;BMP180;6674;49.152;11.918;2023-07-16T12:31:36;96195.03;;;23.99
13219;BMP180;6674;49.152;11.918;2023-07-16T12:34:03;96177.28;;;23.91
13219;BMP180;6674;49.152;11.918;2023-07-16T12:36:30;96184.69;;;23.89
13219;BMP180;6674;49.152;11.918;2023-07-16T12:38:58;96176.50;;;24.04
13219;BMP180;6674;49.152;11.918;2023-07-16T12:41:25;96195.16;;;24.08
13219;BMP180;6674;49.152;11.918;2023-07-16T12:43:52;96192.78;;;24.20
13219;BMP180;6674;49.152;11.918;2023-07-16T12:46:18;96185.75;;;24.42
13219;BMP180;6674;49.152;11.918;2023-07-16T12:48:45;96181.06;;;24.39
13219;BMP180;6674;49.152;11.918;2023-07-16T12:51:11;96179.38;;;24.43
13219;BMP180;6674;49.152;11.918;2023-07-16T12:53:38;96181.03;;;24.52
13219;BMP180;6674;49.152;11.918;2023-07-16T12:56:06;96173.41;;;24.51
13219;BMP180;6674;49.152;11.918;2023-07-16T12:58:33;96178.53;;;24.34
13219;BMP180;6674;49.152;11.918;2023-07-16T13:00:59;96171.66;;;24.46
13219;BMP180;6674;49.152;11.918;2023-07-16T13:03:26;96166.38;;;24.60
13219;BMP180;6674;49.152;11.918;2023-07-16T13:05:52;96169.03;;;24.81
13219;BMP180;6674;49.152;11.918;2023-07-16T13:08:19;96160.66;;;25.01
13219;BMP180;6674;49.152;11.918;2023-07-16T13:10:45;96160.53;;;25.06
13219;BMP180;6674;49.152;11.918;2023-07-16T13:13:14;96161.28;;;25.20
13219;BMP180;6674;49.152;11.918;2023-07-16T13:15:40;96160.38;;;25.24
13219;BMP180;6674;49.152;11.918;2023-07-16T13:18:09;96159.81;;;25.36
13219;BMP180;6674;49.152;11.918;2023-07-16T13:20:36;96160.06;;;25.26
13219;BMP180;6674;49.152;11.918;2023-07-16T13:23:02;96165.00;;;25.19
13219;BMP180;6674;49.152;11.918;2023-07-16T13:25:29;96155.75;;;25.08
13219;BMP180;6674;49.152;11.918;2023-07-16T13:27:56;96149.41;;;25.09
13219;BMP180;6674;49.152;11.918;2023-07-16T13:30:23;96144.28;;;25.13
13219;BMP180;6674;49.152;11.918;2023-07-16T13:32:50;96138.94;;;25.26
13219;BMP180;6674;49.152;11.918;2023-07-16T13:35:20;96144.03;;;25.44
13219;BMP180;6674;49.152;11.918;2023-07-16T13:37:47;96146.56;;;25.58
13219;BMP180;6674;49.152;11.918;2023-07-16T13:40:13;96148.69;;;25.77
13219;BMP180;6674;49.152;11.918;2023-07-16T13:42:40;96151.75;;;26.01
13219;BMP180;6674;49.152;11.918;2023-07-16T13:45:07;96139.31;;;26.10
13219;BMP180;6674;49.152;11.918;2023-07-16T13:47:35;96147.38;;;26.05
13219;BMP180;6674;49.152;11.918;2023-07-16T13:50:02;96140.28;;;26.14
13219;BMP180;6674;49.152;11.918;2023-07-16T13:52:29;96139.56;;;25.92
13219;BMP180;6674;49.152;11.918;2023-07-16T13:54:56;96128.09;;;26.04
13219;BMP180;6674;49.152;11.918;2023-07-16T13:57:22;96127.03;;;26.05
13219;BMP180;6674;49.152;11.918;2023-07-16T13:59:49;96138.53;;;26.01
13219;BMP180;6674;49.152;11.918;2023-07-16T14:02:16;96138.59;;;25.79
13219;BMP180;6674;49.152;11.918;2023-07-16T14:04:44;96139.03;;;25.73
13219;BMP180;6674;49.152;11.918;2023-07-16T14:07:10;96136.22;;;25.69
13219;BMP180;6674;49.152;11.918;2023-07-16T14:09:37;96133.31;;;25.79